Time;durP1;ratioP1;P1;durP2;ratioP2;P2;SDS_P1;SDS_P2;PMS_P1;PMS_P2;Temp;Humidity;BMP_temperature;BMP_pressure;BME280_temperature;BME280_humidity;BME280_pressure;Samples;Min_cycle;Max_cycle;Signal;HPM_P1;HPM_P2
2024/03/28 00:01:07;;;;;;;13.15;8.90;;;8.40;99.90;;;;;;5013178;28;20415;-72
2024/03/28 00:03:34;;;;;;;13.60;9.82;;;8.40;99.90;;;;;;5012791;28;20034;-72
2024/03/28 00:06:00;;;;;;;12.05;9.60;;;8.40;99.90;;;;;;4996686;28;20038;-72
2024/03/28 00:08:28;;;;;;;10.63;9.35;;;8.40;99.90;;;;;;4999783;28;20046;-72
2024/03/28 00:10:55;;;;;;;11.90;8.55;;;8.40;99.90;;;;;;4970906;28;20046;-72
2024/03/28 00:13:22;;;;;;;10.38;9.23;;;8.40;99.90;;;;;;4993077;28;20042;-72
2024/03/28 00:16:02;;;;;;;11.40;8.05;;;8.40;99.90;;;;;;4975953;28;20385;-72
2024/03/28 00:18:29;;;;;;;13.73;9.82;;;8.40;99.90;;;;;;4976852;28;20054;-72
2024/03/28 00:20:59;;;;;;;14.25;10.88;;;8.40;99.90;;;;;;4993226;28;20053;-72
2024/03/28 00:23:26;;;;;;;10.80;8.93;;;8.40;99.90;;;;;;4976715;28;20043;-72
2024/03/28 00:25:56;;;;;;;13.35;9.98;;;8.40;99.90;;;;;;4961079;28;20046;-72
2024/03/28 00:28:24;;;;;;;11.25;9.48;;;8.30;99.90;;;;;;4976653;28;20061;-72
2024/03/28 00:30:51;;;;;;;11.27;8.57;;;8.30;99.90;;;;;;4976831;28;20174;-72
2024/03/28 00:33:18;;;;;;;12.15;8.60;;;8.30;99.90;;;;;;4976571;28;20070;-72
2024/03/28 00:35:45;;;;;;;11.43;7.88;;;8.30;99.90;;;;;;4960350;28;20432;-72
2024/03/28 00:38:11;;;;;;;11.23;8.68;;;8.30;99.90;;;;;;4992895;28;20046;-72
2024/03/28 00:40:45;;;;;;;10.13;8.10;;;8.30;99.90;;;;;;4992585;28;20500;-72
2024/03/28 00:43:11;;;;;;;12.18;9.82;;;8.30;99.90;;;;;;4992738;28;20034;-72
2024/03/28 00:45:37;;;;;;;9.95;8.27;;;8.20;99.90;;;;;;4960202;28;20404;-72
2024/03/28 00:48:03;;;;;;;12.95;8.73;;;8.20;99.90;;;;;;4976368;28;20406;-72
2024/03/28 00:50:29;;;;;;;14.55;10.95;;;8.20;99.90;;;;;;4992591;28;20488;-72
2024/03/28 00:52:55;;;;;;;13.38;9.63;;;8.30;99.90;;;;;;4992651;28;20455;-72
2024/03/28 00:55:21;;;;;;;14.18;11.77;;;8.20;99.90;;;;;;4976470;28;20042;-73
2024/03/28 00:57:47;;;;;;;13.70;10.80;;;8.30;99.90;;;;;;4992374;28;20046;-72
2024/03/28 01:00:14;;;;;;;6.38;4.05;;;8.30;99.90;;;;;;4960412;28;20499;-72
2024/03/28 01:02:40;;;;;;;13.00;9.70;;;8.30;99.90;;;;;;4960073;28;20079;-72
2024/03/28 01:05:06;;;;;;;15.93;12.93;;;8.30;99.90;;;;;;4991506;28;20476;-72
2024/03/28 01:07:32;;;;;;;16.83;14.88;;;8.30;99.90;;;;;;4976193;28;20041;-72
2024/03/28 01:09:58;;;;;;;15.00;9.63;;;8.30;99.90;;;;;;4976123;28;20396;-72
2024/03/28 01:12:24;;;;;;;15.80;11.57;;;8.30;99.90;;;;;;4960335;28;20491;-72
2024/03/28 01:14:50;;;;;;;14.18;12.13;;;8.30;99.90;;;;;;4975687;28;20051;-72
2024/03/28 01:17:16;;;;;;;19.13;14.35;;;8.30;99.90;;;;;;4992222;28;20092;-72
2024/03/28 01:19:42;;;;;;;17.95;12.05;;;8.30;99.90;;;;;;4975669;28;20445;-72
2024/03/28 01:22:08;;;;;;;15.38;12.77;;;8.40;99.90;;;;;;4992092;28;20042;-72
2024/03/28 01:24:34;;;;;;;14.23;11.10;;;8.40;99.90;;;;;;4992142;28;20044;-71
2024/03/28 01:27:00;;;;;;;13.65;9.85;;;8.50;99.90;;;;;;4992137;28;20399;-72
2024/03/28 01:29:27;;;;;;;18.23;11.88;;;8.40;99.90;;;;;;4992270;28;20050;-72
2024/03/28 01:31:53;;;;;;;17.55;12.35;;;8.50;99.90;;;;;;4991853;28;20193;-73
2024/03/28 01:34:18;;;;;;;15.93;11.95;;;8.40;99.90;;;;;;4991930;28;20065;-72
2024/03/28 01:36:44;;;;;;;14.00;10.10;;;8.40;99.90;;;;;;4975556;28;20459;-72
2024/03/28 01:39:11;;;;;;;12.98;11.52;;;8.40;99.90;;;;;;4992241;28;20065;-72
2024/03/28 01:41:37;;;;;;;15.40;12.32;;;8.40;99.90;;;;;;4991724;28;20515;-72
2024/03/28 01:44:02;;;;;;;12.68;9.60;;;8.40;99.90;;;;;;4992051;28;20031;-72
2024/03/28 01:46:29;;;;;;;14.65;9.88;;;8.40;99.90;;;;;;4975823;28;20401;-72
2024/03/28 01:48:55;;;;;;;15.43;11.20;;;8.40;99.90;;;;;;4975387;28;20042;-72
2024/03/28 01:51:22;;;;;;;13.50;10.68;;;8.40;99.90;;;;;;4975850;28;20101;-72
2024/03/28 01:53:49;;;;;;;17.00;11.75;;;8.40;99.90;;;;;;4991499;28;20057;-72
2024/03/28 01:56:18;;;;;;;10.43;8.52;;;8.30;99.90;;;;;;4975642;28;20054;-72
2024/03/28 01:58:45;;;;;;;20.10;10.52;;;8.30;99.90;;;;;;4991503;28;20049;-72
2024/03/28 02:01:13;;;;;;;15.25;10.68;;;8.30;99.90;;;;;;4991610;28;20492;-72
2024/03/28 02:03:39;;;;;;;12.02;8.00;;;8.30;99.90;;;;;;4975162;28;20046;-72
2024/03/28 02:06:05;;;;;;;16.83;13.18;;;8.50;99.90;;;;;;4975484;28;20085;-72
2024/03/28 02:08:31;;;;;;;15.70;12.98;;;8.20;99.90;;;;;;4991912;28;20046;-72
2024/03/28 02:10:58;;;;;;;12.90;7.30;;;8.30;99.90;;;;;;4975304;28;20034;-72
2024/03/28 02:13:24;;;;;;;15.85;10.07;;;8.30;99.90;;;;;;4975308;28;20050;-72
2024/03/28 02:15:51;;;;;;;15.38;12.63;;;8.40;99.90;;;;;;4976827;28;20058;-72
2024/03/28 02:18:21;;;;;;;14.88;12.15;;;8.20;99.90;;;;;;4995583;28;20050;-72
2024/03/28 02:20:48;;;;;;;17.85;13.75;;;8.20;99.90;;;;;;4979033;28;20050;-72
2024/03/28 02:23:15;;;;;;;8.10;6.57;;;8.20;99.90;;;;;;4979006;28;20550;-72
2024/03/28 02:25:42;;;;;;;12.20;7.05;;;8.20;99.90;;;;;;4978876;28;20141;-72
2024/03/28 02:28:09;;;;;;;17.38;11.65;;;8.30;99.90;;;;;;4979163;28;20038;-71
2024/03/28 02:30:35;;;;;;;20.92;15.25;;;8.20;99.90;;;;;;4979236;28;20030;-72
2024/03/28 02:33:01;;;;;;;19.13;15.35;;;8.10;99.90;;;;;;4978729;28;20144;-72
2024/03/28 02:35:27;;;;;;;15.88;12.52;;;8.20;99.90;;;;;;4995344;28;20062;-72
2024/03/28 02:37:53;;;;;;;17.95;13.55;;;8.20;99.90;;;;;;4994896;28;20046;-72
2024/03/28 02:40:19;;;;;;;20.05;13.98;;;8.20;99.90;;;;;;4995110;28;20397;-74
2024/03/28 02:42:45;;;;;;;20.77;14.57;;;8.20;99.90;;;;;;4978612;28;20043;-72
2024/03/28 02:45:11;;;;;;;19.52;14.15;;;8.20;99.90;;;;;;4978828;28;20038;-72
2024/03/28 02:47:37;;;;;;;8.40;6.47;;;8.20;99.90;;;;;;4978769;28;20061;-71
2024/03/28 02:50:03;;;;;;;15.32;11.90;;;8.10;99.90;;;;;;4994649;28;20058;-72
2024/03/28 02:52:29;;;;;;;13.20;8.85;;;8.10;99.90;;;;;;4994865;28;20419;-72
2024/03/28 02:54:55;;;;;;;18.55;13.43;;;8.10;99.90;;;;;;4994649;28;20073;-72
2024/03/28 02:57:25;;;;;;;19.85;12.98;;;8.10;99.90;;;;;;4994841;28;20077;-72
2024/03/28 02:59:51;;;;;;;10.20;7.18;;;8.10;99.90;;;;;;4978380;28;20480;-72
2024/03/28 03:02:17;;;;;;;18.45;15.18;;;8.00;99.90;;;;;;4978541;28;20045;-72
2024/03/28 03:04:43;;;;;;;20.27;15.65;;;8.00;99.90;;;;;;4978259;28;20069;-72
2024/03/28 03:07:10;;;;;;;20.88;14.60;;;8.10;99.90;;;;;;4978389;28;20054;-72
2024/03/28 03:09:36;;;;;;;20.63;14.77;;;8.00;99.90;;;;;;4978240;28;20046;-72
2024/03/28 03:12:02;;;;;;;13.88;9.88;;;8.00;99.90;;;;;;4994264;28;20073;-72
2024/03/28 03:14:29;;;;;;;22.02;16.27;;;8.00;99.90;;;;;;4978449;28;20054;-72
2024/03/28 03:16:55;;;;;;;15.82;11.98;;;8.00;99.90;;;;;;4994235;28;20049;-72
2024/03/28 03:19:22;;;;;;;20.17;15.38;;;8.00;99.90;;;;;;4978096;28;20050;-72
2024/03/28 03:21:50;;;;;;;19.08;13.85;;;7.90;99.90;;;;;;4993956;28;20042;-72
2024/03/28 03:24:16;;;;;;;15.20;9.63;;;7.90;99.90;;;;;;4978371;28;20404;-72
2024/03/28 03:26:49;;;;;;;18.42;13.45;;;7.90;99.90;;;;;;4977366;28;20039;-72
2024/03/28 03:34:51;;;;;;;21.30;14.32;;;7.90;99.90;;;;;;4977466;28;20412;-72
2024/03/28 03:37:25;;;;;;;20.17;12.20;;;7.90;99.90;;;;;;4977779;28;20062;-72
2024/03/28 03:40:05;;;;;;;20.95;15.52;;;7.90;99.90;;;;;;4993764;28;20042;-72
2024/03/28 03:42:31;;;;;;;18.58;11.75;;;7.90;99.90;;;;;;4977892;28;20046;-72
2024/03/28 03:44:57;;;;;;;14.10;10.23;;;7.90;99.90;;;;;;4961550;28;20046;-71
2024/03/28 03:47:23;;;;;;;21.60;14.63;;;7.90;99.90;;;;;;4977636;28;20101;-72
2024/03/28 03:49:49;;;;;;;19.58;11.63;;;7.80;99.90;;;;;;4977316;28;20423;-72
2024/03/28 03:52:15;;;;;;;15.82;11.15;;;7.80;99.90;;;;;;4977666;28;20043;-72
2024/03/28 03:54:42;;;;;;;24.88;16.63;;;7.80;99.90;;;;;;4977387;28;20479;-72
2024/03/28 03:57:08;;;;;;;21.45;15.60;;;7.90;99.90;;;;;;4977214;28;20088;-72
2024/03/28 03:59:35;;;;;;;22.58;13.88;;;7.90;99.90;;;;;;4993497;28;20392;-72
2024/03/28 04:02:01;;;;;;;17.77;9.95;;;7.90;99.90;;;;;;4994037;28;20038;-72
2024/03/28 04:04:27;;;;;;;24.10;13.43;;;7.90;99.90;;;;;;4992783;28;20555;-72
2024/03/28 04:06:53;;;;;;;23.67;17.48;;;7.90;99.90;;;;;;4992428;28;20047;-72
2024/03/28 04:09:19;;;;;;;21.80;14.45;;;7.90;99.90;;;;;;4993383;28;20047;-72
2024/03/28 04:11:50;;;;;;;20.05;15.32;;;7.90;99.90;;;;;;4993453;28;20057;-72
2024/03/28 04:14:17;;;;;;;27.02;16.10;;;7.80;99.90;;;;;;4993392;28;20046;-72
2024/03/28 04:16:43;;;;;;;18.27;13.20;;;7.90;99.90;;;;;;4977118;28;20050;-72
2024/03/28 04:19:10;;;;;;;11.73;8.43;;;7.90;99.90;;;;;;4993018;28;20069;-72
2024/03/28 04:21:36;;;;;;;22.75;14.57;;;7.80;99.90;;;;;;4961133;28;20053;-72
2024/03/28 04:24:03;;;;;;;10.98;7.22;;;7.80;99.90;;;;;;4993028;28;20049;-72
2024/03/28 04:26:30;;;;;;;25.98;14.60;;;7.80;99.90;;;;;;4961021;28;20420;-72
2024/03/28 04:28:55;;;;;;;27.55;17.70;;;7.80;99.90;;;;;;4976660;28;20097;-72
2024/03/28 04:31:22;;;;;;;27.50;17.42;;;7.80;99.90;;;;;;4992920;28;20129;-72
2024/03/28 04:33:48;;;;;;;12.55;8.75;;;7.80;99.90;;;;;;4992565;28;20109;-71
2024/03/28 04:36:15;;;;;;;14.40;9.93;;;7.80;99.90;;;;;;4992583;28;20117;-72
2024/03/28 04:38:42;;;;;;;14.95;9.70;;;7.70;99.90;;;;;;4959626;28;20046;-72
2024/03/28 04:41:09;;;;;;;28.83;15.18;;;7.70;99.90;;;;;;4976525;28;20096;-72
2024/03/28 04:43:36;;;;;;;23.25;16.48;;;7.80;99.90;;;;;;4976781;28;20041;-72
2024/03/28 04:46:02;;;;;;;14.95;10.73;;;7.70;99.90;;;;;;4992496;28;20500;-72
2024/03/28 04:48:29;;;;;;;18.05;10.90;;;7.70;99.90;;;;;;4992724;28;20507;-72
2024/03/28 04:50:56;;;;;;;24.95;17.17;;;7.70;99.90;;;;;;4992594;28;20043;-72
2024/03/28 04:53:23;;;;;;;24.13;16.08;;;7.70;99.90;;;;;;4992742;28;20488;-72
2024/03/28 04:55:49;;;;;;;19.92;13.98;;;7.80;99.90;;;;;;4976353;28;20050;-72
2024/03/28 04:58:16;;;;;;;12.98;7.22;;;7.70;99.90;;;;;;4976141;28;20537;-72
2024/03/28 05:00:42;;;;;;;30.77;18.85;;;7.70;99.90;;;;;;4992508;28;20062;-72
2024/03/28 05:03:08;;;;;;;24.92;16.70;;;7.60;99.90;;;;;;4992501;28;20125;-72
2024/03/28 05:05:34;;;;;;;24.65;15.93;;;7.60;99.90;;;;;;4992624;28;20042;-71
2024/03/28 05:08:00;;;;;;;18.10;9.68;;;7.60;99.90;;;;;;4992308;28;20054;-72
2024/03/28 05:10:26;;;;;;;24.17;18.60;;;7.60;99.90;;;;;;4960255;28;20052;-72
2024/03/28 05:12:52;;;;;;;21.48;13.13;;;7.60;99.90;;;;;;4992299;28;20407;-72
2024/03/28 05:15:18;;;;;;;32.47;19.88;;;7.60;99.90;;;;;;4991953;28;20042;-72
2024/03/28 05:17:44;;;;;;;24.60;16.80;;;7.60;99.90;;;;;;4992446;28;20046;-72
2024/03/28 05:20:12;;;;;;;25.42;17.17;;;7.60;99.90;;;;;;4991935;28;20053;-72
2024/03/28 05:22:39;;;;;;;25.27;17.17;;;7.60;99.90;;;;;;4975769;28;20491;-72
2024/03/28 05:25:08;;;;;;;17.13;10.32;;;7.60;99.90;;;;;;4991957;28;20038;-72
2024/03/28 05:27:34;;;;;;;27.90;17.85;;;7.60;99.90;;;;;;4992100;28;20038;-72
2024/03/28 05:30:01;;;;;;;22.02;16.73;;;7.50;99.90;;;;;;4991890;28;20050;-72
2024/03/28 05:32:27;;;;;;;30.08;18.63;;;7.50;99.90;;;;;;4991965;28;20043;-72
2024/03/28 05:34:53;;;;;;;34.90;21.63;;;7.50;99.90;;;;;;4992044;28;20142;-72
2024/03/28 05:37:19;;;;;;;31.48;21.20;;;7.50;99.90;;;;;;4992862;28;20045;-72
2024/03/28 05:39:45;;;;;;;23.55;14.52;;;7.50;99.90;;;;;;4994343;28;20042;-72
2024/03/28 05:42:11;;;;;;;38.75;23.67;;;7.50;99.90;;;;;;5011184;28;20030;-72
2024/03/28 05:44:37;;;;;;;29.10;16.05;;;7.60;99.90;;;;;;5010999;28;20037;-72
2024/03/28 05:47:03;;;;;;;38.35;21.90;;;7.50;99.90;;;;;;5011192;28;20476;-72
2024/03/28 05:49:29;;;;;;;26.73;15.25;;;7.50;99.90;;;;;;4978709;28;20530;-72
2024/03/28 05:51:55;;;;;;;32.97;21.10;;;7.60;99.90;;;;;;5009970;28;20042;-71
2024/03/28 05:54:22;;;;;;;20.10;12.85;;;7.60;99.90;;;;;;4994673;28;20443;-72
2024/03/28 05:56:48;;;;;;;36.95;23.05;;;7.50;99.90;;;;;;4994959;28;20054;-72
2024/03/28 05:59:14;;;;;;;37.45;20.30;;;7.50;99.90;;;;;;5011393;28;20403;-72
2024/03/28 06:01:41;;;;;;;32.40;19.40;;;7.60;99.90;;;;;;4999156;28;20450;-72
2024/03/28 06:04:07;;;;;;;32.33;17.70;;;7.60;99.90;;;;;;4975098;28;20409;-72
2024/03/28 06:06:33;;;;;;;31.45;21.77;;;7.60;99.90;;;;;;4990767;28;20046;-72
2024/03/28 06:08:59;;;;;;;33.88;19.90;;;7.70;99.90;;;;;;4975451;28;20400;-72
2024/03/28 06:11:25;;;;;;;38.28;21.33;;;7.80;99.90;;;;;;4991197;28;20042;-72
2024/03/28 06:14:05;;;;;;;34.78;21.10;;;7.70;99.90;;;;;;4991550;28;20046;-72
2024/03/28 06:16:31;;;;;;;26.50;17.13;;;7.50;99.90;;;;;;4990321;28;20376;-72
2024/03/28 06:18:57;;;;;;;22.58;13.93;;;7.70;99.90;;;;;;4995104;28;20085;-72
2024/03/28 06:21:23;;;;;;;35.70;19.73;;;7.80;99.90;;;;;;4994785;28;20463;-72
2024/03/28 06:23:49;;;;;;;18.85;14.05;;;7.80;99.90;;;;;;4994149;28;20038;-72
2024/03/28 06:26:15;;;;;;;17.08;11.48;;;7.90;99.90;;;;;;4994027;28;20038;-71
2024/03/28 06:28:41;;;;;;;27.90;17.88;;;7.90;99.90;;;;;;5010534;28;20046;-72
2024/03/28 06:31:07;;;;;;;30.58;20.20;;;8.10;99.90;;;;;;4994227;28;20080;-72
2024/03/28 06:33:33;;;;;;;30.95;19.27;;;8.20;99.90;;;;;;4994073;28;20089;-72
2024/03/28 06:35:59;;;;;;;29.92;18.27;;;8.10;99.90;;;;;;4994200;28;20396;-72
2024/03/28 06:38:25;;;;;;;17.42;13.10;;;8.20;99.90;;;;;;4977800;28;20050;-72
2024/03/28 06:41:02;;;;;;;26.10;16.98;;;8.10;99.90;;;;;;5010750;28;20471;-71
2024/03/28 06:43:28;;;;;;;27.42;16.70;;;8.20;99.90;;;;;;4994332;28;20034;-71
2024/03/28 06:45:54;;;;;;;16.00;11.70;;;8.10;99.90;;;;;;4994835;28;20084;-72
2024/03/28 06:48:20;;;;;;;31.95;19.35;;;8.20;99.90;;;;;;4994376;28;20037;-72
2024/03/28 06:50:45;;;;;;;30.33;17.30;;;8.20;99.90;;;;;;4994329;28;20053;-72
2024/03/28 06:53:12;;;;;;;30.77;19.27;;;8.20;99.90;;;;;;4994362;28;20049;-71
2024/03/28 06:55:38;;;;;;;23.33;17.42;;;8.30;99.90;;;;;;4994386;28;20050;-71
2024/03/28 06:58:04;;;;;;;34.42;21.77;;;8.30;99.90;;;;;;5010625;28;20084;-72
2024/03/28 07:00:31;;;;;;;30.48;19.40;;;8.40;99.90;;;;;;4978390;28;20045;-71
2024/03/28 07:02:57;;;;;;;29.52;19.13;;;8.40;99.90;;;;;;4995869;28;20053;-71
2024/03/28 07:05:24;;;;;;;34.90;21.98;;;8.50;99.90;;;;;;5013950;28;20030;-72
2024/03/28 07:07:51;;;;;;;17.25;13.85;;;8.50;99.90;;;;;;4981522;28;20499;-72
2024/03/28 07:10:17;;;;;;;32.22;17.50;;;8.50;99.90;;;;;;4997658;28;20061;-72
2024/03/28 07:12:43;;;;;;;33.45;20.05;;;8.50;99.90;;;;;;4981638;28;20065;-72
2024/03/28 07:15:11;;;;;;;16.75;10.15;;;8.60;99.90;;;;;;5014097;28;20038;-73
2024/03/28 07:17:38;;;;;;;33.45;19.45;;;8.60;99.90;;;;;;5013697;28;20037;-72
2024/03/28 07:20:04;;;;;;;15.40;10.55;;;8.70;99.90;;;;;;4981289;28;20434;-73
2024/03/28 07:22:30;;;;;;;21.02;15.63;;;8.70;99.90;;;;;;4997372;28;20049;-73
2024/03/28 07:24:57;;;;;;;26.35;18.13;;;8.80;99.90;;;;;;4997412;28;20042;-73
2024/03/28 07:27:23;;;;;;;27.63;15.95;;;8.80;99.90;;;;;;4981048;28;20043;-73
2024/03/28 07:29:49;;;;;;;30.63;17.73;;;8.90;99.90;;;;;;4997190;28;20049;-73
2024/03/28 07:32:15;;;;;;;26.58;17.92;;;8.90;99.90;;;;;;5013684;28;20045;-73
2024/03/28 07:34:42;;;;;;;27.02;20.60;;;9.00;99.90;;;;;;4981079;28;20061;-72
2024/03/28 07:37:08;;;;;;;23.42;16.33;;;9.00;99.90;;;;;;4997101;28;20488;-72
2024/03/28 07:39:34;;;;;;;18.92;14.10;;;9.10;99.90;;;;;;4996949;28;20041;-73
2024/03/28 07:42:00;;;;;;;16.55;10.50;;;9.20;99.90;;;;;;4997316;28;20403;-73
2024/03/28 07:44:26;;;;;;;24.05;16.70;;;9.30;99.90;;;;;;4980791;28;20034;-73
2024/03/28 07:46:52;;;;;;;26.02;19.35;;;9.50;99.90;;;;;;5013739;28;20136;-73
2024/03/28 07:49:18;;;;;;;16.23;13.55;;;9.50;99.90;;;;;;4997139;28;20125;-73
2024/03/28 07:51:44;;;;;;;15.57;11.85;;;9.60;99.90;;;;;;4997015;28;20048;-73
2024/03/28 07:54:12;;;;;;;24.92;18.40;;;9.70;99.90;;;;;;4980847;28;20073;-73
2024/03/28 07:56:38;;;;;;;21.30;14.10;;;9.70;99.90;;;;;;5013036;28;20060;-73
2024/03/28 07:59:05;;;;;;;20.13;13.30;;;9.80;99.90;;;;;;4996830;28;20038;-74
2024/03/28 08:01:32;;;;;;;20.70;14.57;;;9.80;99.90;;;;;;4996786;28;20511;-74
2024/03/28 08:03:57;;;;;;;19.65;14.52;;;10.00;99.90;;;;;;5012946;28;20042;-74
2024/03/28 08:06:23;;;;;;;22.80;15.65;;;10.10;99.90;;;;;;4980191;28;20045;-74
2024/03/28 08:08:49;;;;;;;21.40;15.57;;;10.30;99.90;;;;;;4996603;28;20085;-74
2024/03/28 08:11:15;;;;;;;24.50;21.80;;;10.40;99.90;;;;;;4996558;28;20053;-74
2024/03/28 08:13:41;;;;;;;18.52;12.57;;;10.50;99.90;;;;;;4996220;28;20066;-74
2024/03/28 08:16:07;;;;;;;15.73;10.50;;;10.60;99.90;;;;;;4980571;28;20103;-71
2024/03/28 08:18:33;;;;;;;20.75;14.30;;;10.80;99.90;;;;;;5012568;28;20136;-71
2024/03/28 08:20:59;;;;;;;24.05;16.55;;;11.00;99.90;;;;;;4996402;28;20054;-71
2024/03/28 08:23:25;;;;;;;19.20;15.40;;;11.40;99.90;;;;;;4996391;28;20084;-72
2024/03/28 08:25:51;;;;;;;19.25;13.43;;;11.70;99.90;;;;;;5012869;28;20080;-72
2024/03/28 08:28:18;;;;;;;19.63;16.70;;;11.90;99.90;;;;;;4996538;28;20488;-71
2024/03/28 08:30:44;;;;;;;19.30;14.30;;;12.30;99.90;;;;;;4979845;28;20050;-72
2024/03/28 08:33:10;;;;;;;21.70;14.95;;;12.60;99.90;;;;;;4995979;28;20037;-72
2024/03/28 08:35:41;;;;;;;14.38;10.60;;;12.80;99.90;;;;;;4979382;28;20053;-71
2024/03/28 08:38:08;;;;;;;17.30;12.75;;;12.80;99.60;;;;;;4992823;28;20046;-71
2024/03/28 08:40:35;;;;;;;15.25;11.05;;;13.10;99.90;;;;;;4995979;28;20054;-72
2024/03/28 08:43:02;;;;;;;17.40;14.25;;;13.30;98.60;;;;;;4995786;28;20038;-72
2024/03/28 08:45:28;;;;;;;16.83;12.30;;;13.50;98.60;;;;;;5012169;28;20038;-72
2024/03/28 08:47:56;;;;;;;16.33;12.20;;;13.60;98.00;;;;;;5012331;28;20109;-72
2024/03/28 08:50:22;;;;;;;14.02;11.75;;;14.20;98.50;;;;;;4995830;28;20484;-72
2024/03/28 08:52:49;;;;;;;16.80;12.82;;;14.80;94.60;;;;;;4979565;28;20545;-72
2024/03/28 08:55:17;;;;;;;14.65;9.00;;;15.10;93.80;;;;;;5012449;28;20049;-72
2024/03/28 08:57:44;;;;;;;11.18;7.10;;;15.30;93.20;;;;;;5012156;28;20056;-72
2024/03/28 09:00:10;;;;;;;15.10;13.57;;;15.60;91.80;;;;;;4995961;28;20068;-72
2024/03/28 09:02:38;;;;;;;11.95;10.68;;;15.90;91.00;;;;;;4995520;28;20058;-72
2024/03/28 09:05:05;;;;;;;12.20;8.57;;;16.10;90.40;;;;;;4995711;28;20046;-72
2024/03/28 09:07:35;;;;;;;12.95;10.82;;;16.10;90.90;;;;;;4979160;28;20061;-72
2024/03/28 09:10:04;;;;;;;14.35;10.55;;;15.50;90.70;;;;;;5011877;28;20500;-72
2024/03/28 09:12:38;;;;;;;11.25;7.72;;;14.90;91.70;;;;;;5011936;28;20066;-71
2024/03/28 09:15:08;;;;;;;16.65;14.27;;;14.20;92.80;;;;;;5011556;28;20057;-72
2024/03/28 09:17:34;;;;;;;15.68;11.23;;;13.60;92.90;;;;;;5011617;28;20369;-71
2024/03/28 09:20:00;;;;;;;11.05;8.55;;;13.20;93.90;;;;;;4995544;28;20042;-71
2024/03/28 09:22:27;;;;;;;14.23;10.73;;;13.00;94.70;;;;;;5011836;28;20034;-71
2024/03/28 09:24:53;;;;;;;13.73;11.45;;;13.20;95.10;;;;;;4994641;28;20046;-72
2024/03/28 09:27:19;;;;;;;11.45;8.18;;;13.90;94.20;;;;;;5011572;28;20045;-72
2024/03/28 09:29:45;;;;;;;10.43;9.10;;;14.70;93.80;;;;;;4995105;28;20096;-72
2024/03/28 09:32:12;;;;;;;8.98;6.88;;;15.70;90.90;;;;;;5011704;28;20046;-72
2024/03/28 09:34:38;;;;;;;9.82;7.82;;;16.20;89.10;;;;;;5011351;28;20053;-72
2024/03/28 09:37:07;;;;;;;7.28;5.55;;;16.30;90.20;;;;;;5011636;28;20517;-72
2024/03/28 09:39:34;;;;;;;9.02;7.47;;;16.30;87.60;;;;;;5011403;28;20042;-72
2024/03/28 09:42:02;;;;;;;7.60;4.95;;;16.30;86.70;;;;;;4995205;28;20054;-72
2024/03/28 09:44:30;;;;;;;6.18;4.85;;;16.40;87.80;;;;;;4995137;28;20046;-72
2024/03/28 09:46:59;;;;;;;5.78;4.90;;;16.40;88.20;;;;;;5011198;28;20041;-72
2024/03/28 09:49:27;;;;;;;6.07;4.38;;;16.50;84.60;;;;;;5011458;28;20045;-72
2024/03/28 09:51:56;;;;;;;6.13;5.53;;;16.60;84.50;;;;;;5011211;28;20487;-72
2024/03/28 09:54:23;;;;;;;6.97;5.82;;;16.40;84.50;;;;;;5011420;28;20445;-71
2024/03/28 09:56:51;;;;;;;6.25;5.45;;;16.30;85.30;;;;;;5011127;28;20045;-72
2024/03/28 09:59:17;;;;;;;6.20;4.53;;;16.50;86.00;;;;;;4978817;28;20057;-72
2024/03/28 10:01:46;;;;;;;5.28;4.85;;;16.80;85.10;;;;;;4994722;28;20050;-72
2024/03/28 10:04:19;;;;;;;4.63;4.20;;;16.90;83.50;;;;;;5011301;28;20045;-72
2024/03/28 10:06:57;;;;;;;5.30;4.90;;;16.50;82.90;;;;;;4978620;28;20046;-72
2024/03/28 10:09:23;;;;;;;5.38;4.10;;;16.00;83.00;;;;;;5011386;28;20065;-72
2024/03/28 10:11:53;;;;;;;5.47;5.07;;;15.20;85.20;;;;;;5011117;28;20034;-72
2024/03/28 10:14:26;;;;;;;3.60;3.30;;;14.90;85.90;;;;;;4994902;28;20041;-72
2024/03/28 10:17:01;;;;;;;3.97;3.65;;;14.90;86.50;;;;;;5011091;28;20053;-72
2024/03/28 10:19:29;;;;;;;6.00;5.18;;;14.50;86.20;;;;;;4994875;28;20057;-71
2024/03/28 10:22:04;;;;;;;4.22;3.83;;;14.20;86.90;;;;;;5011225;28;20042;-71
2024/03/28 10:24:32;;;;;;;4.25;3.90;;;13.70;88.40;;;;;;4994782;28;20491;-71
2024/03/28 10:27:00;;;;;;;3.95;3.58;;;13.50;89.70;;;;;;5010847;28;20034;-71
2024/03/28 10:29:31;;;;;;;4.55;4.15;;;13.30;89.80;;;;;;4994784;28;20045;-72
2024/03/28 10:32:06;;;;;;;4.22;3.83;;;13.40;90.10;;;;;;4994604;28;20046;-72
2024/03/28 10:34:33;;;;;;;3.70;3.40;;;13.50;89.60;;;;;;4994435;28;20073;-72
2024/03/28 10:37:05;;;;;;;4.32;3.90;;;13.50;90.40;;;;;;4996257;28;20042;-71
2024/03/28 10:39:31;;;;;;;3.42;3.13;;;13.50;89.60;;;;;;5014833;28;20092;-71
2024/03/28 10:42:02;;;;;;;4.10;2.85;;;13.40;90.00;;;;;;4998095;28;20499;-71
2024/03/28 10:44:30;;;;;;;4.50;3.30;;;13.40;90.10;;;;;;4998531;28;20034;-72
2024/03/28 10:46:57;;;;;;;4.50;4.10;;;13.30;90.10;;;;;;4981804;28;20049;-72
2024/03/28 10:49:37;;;;;;;3.80;3.50;;;13.20;90.20;;;;;;4998516;28;20065;-72
2024/03/28 10:52:07;;;;;;;3.70;3.40;;;13.00;91.00;;;;;;5014408;28;20038;-72
2024/03/28 10:54:39;;;;;;;4.38;3.97;;;12.80;91.50;;;;;;4998284;28;20045;-71
2024/03/28 10:57:08;;;;;;;3.38;3.08;;;12.60;91.30;;;;;;5014295;28;20037;-71
2024/03/28 10:59:34;;;;;;;4.97;3.13;;;12.40;91.10;;;;;;5014447;28;20050;-71
2024/03/28 11:02:04;;;;;;;3.15;2.40;;;12.20;91.30;;;;;;4997803;28;20049;-72
2024/03/28 11:04:31;;;;;;;3.40;2.60;;;12.00;91.80;;;;;;5014482;28;20033;-72
2024/03/28 11:06:58;;;;;;;3.72;3.42;;;11.80;92.20;;;;;;4998027;28;20510;-72
2024/03/28 11:09:28;;;;;;;4.03;3.60;;;11.60;92.20;;;;;;5014280;28;20475;-72
2024/03/28 11:11:57;;;;;;;4.57;4.20;;;11.50;92.70;;;;;;4997502;28;20053;-72
2024/03/28 11:14:23;;;;;;;5.07;4.78;;;11.20;93.00;;;;;;5014136;28;20096;-72
2024/03/28 11:16:50;;;;;;;3.42;3.20;;;11.10;93.30;;;;;;4997597;28;20046;-72
2024/03/28 11:19:16;;;;;;;3.95;3.60;;;10.80;93.80;;;;;;4997631;28;20046;-72
2024/03/28 11:21:42;;;;;;;4.20;2.63;;;10.50;94.30;;;;;;4981456;28;20054;-72
2024/03/28 11:24:22;;;;;;;4.10;3.80;;;10.30;94.90;;;;;;4997258;28;20050;-72
2024/03/28 11:26:56;;;;;;;4.03;3.72;;;10.10;95.40;;;;;;4997373;28;20400;-72
2024/03/28 11:29:26;;;;;;;4.28;4.05;;;9.80;96.80;;;;;;4997652;28;20053;-72
2024/03/28 11:31:59;;;;;;;3.42;3.13;;;9.50;98.30;;;;;;4997221;28;20049;-72
2024/03/28 11:34:29;;;;;;;3.30;3.10;;;9.20;99.90;;;;;;5013709;28;20416;-72
2024/03/28 11:36:59;;;;;;;3.45;3.15;;;8.90;99.90;;;;;;4980970;28;20049;-73
2024/03/28 11:39:27;;;;;;;2.30;2.10;;;8.50;99.90;;;;;;4997428;28;20391;-73
2024/03/28 11:41:53;;;;;;;2.55;2.35;;;8.20;99.90;;;;;;4997213;28;20045;-72
2024/03/28 11:44:20;;;;;;;2.85;2.75;;;7.90;99.90;;;;;;5013446;28;20049;-72
2024/03/28 11:46:47;;;;;;;2.30;2.10;;;7.80;99.90;;;;;;5013437;28;20547;-72
2024/03/28 11:49:19;;;;;;;2.53;2.33;;;7.60;99.90;;;;;;4996221;28;20049;-72
2024/03/28 11:51:46;;;;;;;2.47;2.35;;;7.50;99.90;;;;;;5010792;28;20034;-72
2024/03/28 11:54:17;;;;;;;2.25;1.88;;;7.40;99.90;;;;;;4982598;28;20046;-72
2024/03/28 11:56:47;;;;;;;1.88;1.77;;;7.40;99.90;;;;;;5006100;28;20049;-72
2024/03/28 11:59:20;;;;;;;1.90;1.77;;;7.40;99.90;;;;;;4980275;28;20050;-72
2024/03/28 12:02:00;;;;;;;2.78;2.22;;;7.40;99.90;;;;;;5012973;28;20045;-72
2024/03/28 12:04:26;;;;;;;2.25;2.15;;;7.30;99.90;;;;;;4996459;28;20534;-72
2024/03/28 12:06:54;;;;;;;2.80;2.60;;;7.40;99.90;;;;;;5012680;28;20049;-72
2024/03/28 12:09:21;;;;;;;3.33;3.03;;;7.30;99.90;;;;;;4996740;28;20060;-72
2024/03/28 12:11:47;;;;;;;2.80;2.60;;;7.30;99.90;;;;;;4964402;28;20511;-72
2024/03/28 12:14:22;;;;;;;2.67;2.58;;;7.40;99.90;;;;;;4980127;28;20084;-72
2024/03/28 12:16:48;;;;;;;2.95;2.72;;;7.50;99.90;;;;;;5013066;28;20484;-72
2024/03/28 12:19:24;;;;;;;3.97;3.78;;;7.60;99.90;;;;;;5012723;28;20046;-72
2024/03/28 12:21:50;;;;;;;2.78;2.58;;;7.50;99.90;;;;;;4980375;28;20449;-72
2024/03/28 12:24:20;;;;;;;1.98;1.85;;;7.60;99.90;;;;;;5012555;28;20040;-72
2024/03/28 12:26:46;;;;;;;2.80;2.60;;;7.50;99.90;;;;;;5012679;28;20042;-72
2024/03/28 12:29:12;;;;;;;2.40;2.28;;;7.60;99.90;;;;;;4979845;28;20084;-72
2024/03/28 12:31:38;;;;;;;1.60;1.50;;;7.70;99.90;;;;;;5012558;28;20057;-72
2024/03/28 12:34:13;;;;;;;2.15;1.95;;;7.80;99.90;;;;;;4995843;28;20042;-72
2024/03/28 12:36:39;;;;;;;3.08;2.10;;;7.90;99.90;;;;;;4996257;28;20053;-72
2024/03/28 12:39:09;;;;;;;1.30;1.20;;;8.00;99.90;;;;;;5012217;28;20049;-72
2024/03/28 12:41:37;;;;;;;1.73;1.63;;;8.10;99.90;;;;;;5012240;28;20042;-72
2024/03/28 12:44:03;;;;;;;1.77;1.67;;;8.00;99.90;;;;;;5012156;28;20064;-73
2024/03/28 12:46:39;;;;;;;0.88;0.85;;;8.10;99.90;;;;;;5012597;28;20042;-72